Time;durP1;ratioP1;P1;durP2;ratioP2;P2;SDS_P1;SDS_P2;PMS_P1;PMS_P2;Temp;Humidity;BMP_temperature;BMP_pressure;BME280_temperature;BME280_humidity;BME280_pressure;Samples;Min_cycle;Max_cycle;Signal;HPM_P1;HPM_P2
2022/10/18 00:00:19;;;;;;;7.60;1.52;;;;;;;14.88;88.76;102096.22;7389549;19;20025;-59
2022/10/18 00:02:45;;;;;;;8.88;1.50;;;;;;;14.89;89.20;102097.91;7391578;19;20122;-59
2022/10/18 00:05:12;;;;;;;9.25;1.38;;;;;;;14.89;88.95;102097.06;7391365;19;20439;-58
2022/10/18 00:07:39;;;;;;;14.35;1.42;;;;;;;14.91;89.09;102103.06;7391193;19;20018;-57
2022/10/18 00:10:07;;;;;;;6.82;1.20;;;;;;;14.89;88.94;102105.84;7392351;19;20019;-58
2022/10/18 00:12:35;;;;;;;12.10;1.10;;;;;;;14.87;89.24;102104.34;7391561;19;20006;-59
2022/10/18 00:15:04;;;;;;;12.65;1.20;;;;;;;14.86;89.33;102107.97;7391876;19;20018;-58
2022/10/18 00:17:33;;;;;;;14.95;2.03;;;;;;;14.85;89.13;102114.25;7390616;19;20018;-60
2022/10/18 00:20:01;;;;;;;13.38;1.33;;;;;;;14.76;89.11;102113.34;7390424;19;20010;-55
2022/10/18 00:22:27;;;;;;;8.25;1.20;;;;;;;14.73;89.37;102110.97;7389466;19;20015;-57
2022/10/18 00:24:55;;;;;;;10.00;1.20;;;;;;;14.75;90.18;102114.31;7391101;19;20018;-59
2022/10/18 00:27:21;;;;;;;8.85;1.17;;;;;;;14.74;89.99;102109.97;7387904;19;20155;-58
2022/10/18 00:29:52;;;;;;;9.02;1.08;;;;;;;14.75;89.91;102116.97;7389844;19;20014;-58
2022/10/18 00:32:19;;;;;;;9.23;1.30;;;;;;;14.73;89.27;102118.91;7392377;19;20078;-57
2022/10/18 00:34:46;;;;;;;11.77;1.45;;;;;;;14.72;89.19;102119.91;7390591;19;20026;-58
2022/10/18 00:37:13;;;;;;;13.13;1.20;;;;;;;14.70;89.14;102129.81;7389031;19;20019;-59
2022/10/18 00:39:40;;;;;;;12.75;0.98;;;;;;;14.68;88.90;102126.47;7391271;19;20036;-60
2022/10/18 00:42:15;;;;;;;12.68;1.50;;;;;;;14.64;88.84;102130.41;7389298;19;20021;-58
2022/10/18 00:44:41;;;;;;;9.20;1.40;;;;;;;14.60;89.09;102133.50;7387705;19;20046;-59
2022/10/18 00:47:10;;;;;;;9.20;1.23;;;;;;;14.57;89.47;102131.16;7391826;19;20018;-59
2022/10/18 00:49:42;;;;;;;10.25;1.25;;;;;;;14.54;89.73;102141.03;7390482;19;20006;-57
2022/10/18 00:52:17;;;;;;;12.98;1.15;;;;;;;14.53;90.32;102149.13;7389431;19;20027;-57
2022/10/18 00:54:46;;;;;;;12.00;1.33;;;;;;;14.51;90.46;102154.59;7390191;19;20014;-59
2022/10/18 00:57:13;;;;;;;11.98;1.35;;;;;;;14.50;90.38;102150.25;7391345;19;20330;-58
2022/10/18 00:59:41;;;;;;;11.27;1.17;;;;;;;14.52;90.77;102153.63;7390073;19;20022;-57
2022/10/18 01:02:08;;;;;;;17.40;2.65;;;;;;;14.51;90.83;102151.09;7388847;19;20010;-56
2022/10/18 01:04:35;;;;;;;10.45;1.08;;;;;;;14.51;90.69;102156.41;7388707;19;20564;-59
2022/10/18 01:07:46;;;;;;;8.32;1.08;;;;;;;14.51;90.64;102164.34;7390380;19;20049;-58
2022/10/18 01:10:21;;;;;;;18.85;1.75;;;;;;;14.50;90.86;102165.31;7386646;19;20019;-59
2022/10/18 01:13:08;;;;;;;12.45;3.38;;;;;;;14.48;90.97;102157.50;7391302;19;20022;-54
2022/10/18 01:16:00;;;;;;;11.20;0.95;;;;;;;14.48;91.19;102169.91;7387791;19;20015;-60
2022/10/18 01:18:56;;;;;;;9.35;1.23;;;;;;;14.48;91.07;102164.63;7390249;19;20014;-59
2022/10/18 01:21:31;;;;;;;10.55;1.30;;;;;;;14.45;91.20;102168.41;7387282;19;20029;-60
2022/10/18 01:24:10;;;;;;;14.77;1.10;;;;;;;14.43;91.20;102169.50;7388971;19;20035;-58
2022/10/18 01:26:55;;;;;;;6.88;1.02;;;;;;;14.44;91.78;102172.03;7387822;19;20018;-62
2022/10/18 01:29:31;;;;;;;11.85;1.30;;;;;;;14.45;91.81;102173.72;7386041;19;20567;-58
2022/10/18 01:32:03;;;;;;;13.82;1.30;;;;;;;14.47;91.82;102176.22;7389821;19;20389;-57
2022/10/18 01:34:34;;;;;;;11.82;1.00;;;;;;;14.48;91.59;102177.88;7387494;19;20030;-59
2022/10/18 01:37:06;;;;;;;17.63;1.25;;;;;;;14.45;91.23;102184.31;7387678;19;20038;-58
2022/10/18 01:39:37;;;;;;;9.25;1.00;;;;;;;14.43;91.46;102185.41;7389593;19;20708;-60
2022/10/18 01:42:08;;;;;;;16.08;1.25;;;;;;;14.41;91.33;102184.72;7388569;19;20107;-59
2022/10/18 01:44:37;;;;;;;13.80;1.65;;;;;;;14.39;91.17;102182.22;7388361;19;20014;-58
2022/10/18 01:47:08;;;;;;;7.85;0.85;;;;;;;14.36;91.09;102181.66;7389812;19;20014;-59
2022/10/18 01:49:35;;;;;;;10.15;1.25;;;;;;;14.34;91.38;102175.66;7387447;19;20038;-59
2022/10/18 01:52:02;;;;;;;11.30;1.60;;;;;;;14.33;91.25;102185.41;7387780;19;20528;-58
2022/10/18 01:54:35;;;;;;;9.77;1.13;;;;;;;14.33;91.04;102184.56;7388239;19;20032;-59
2022/10/18 01:57:22;;;;;;;17.85;4.60;;;;;;;14.30;91.37;102180.41;7388820;19;20015;-61
2022/10/18 02:00:08;;;;;;;7.82;1.55;;;;;;;14.34;92.13;102188.88;7388104;19;20018;-59
2022/10/18 02:02:55;;;;;;;8.77;1.40;;;;;;;14.37;91.63;102192.13;7388872;19;20038;-59
2022/10/18 02:05:53;;;;;;;12.23;1.35;;;;;;;14.35;91.37;102191.41;7386227;19;20498;-60
2022/10/18 02:08:29;;;;;;;12.65;1.15;;;;;;;14.32;91.50;102190.88;7387042;19;20479;-59
2022/10/18 02:11:05;;;;;;;17.23;3.65;;;;;;;14.33;91.88;102187.22;7387790;19;20686;-57
2022/10/18 02:13:54;;;;;;;12.45;2.03;;;;;;;14.32;92.31;102189.06;7387744;19;20014;-58
2022/10/18 02:16:58;;;;;;;12.40;1.85;;;;;;;14.29;92.22;102191.97;7387230;19;20022;-58
2022/10/18 02:19:47;;;;;;;7.53;0.95;;;;;;;14.23;91.73;102194.34;7387420;19;20018;-58
2022/10/18 02:22:16;;;;;;;8.48;1.00;;;;;;;14.22;92.41;102187.41;7386094;19;20019;-58
2022/10/18 02:24:53;;;;;;;11.98;1.35;;;;;;;14.22;92.66;102190.06;7387618;19;20018;-59
2022/10/18 02:27:21;;;;;;;11.57;1.77;;;;;;;14.22;92.75;102198.00;7388307;19;20375;-60
2022/10/18 02:29:48;;;;;;;6.97;0.93;;;;;;;14.23;93.17;102195.19;7386877;19;20035;-59
2022/10/18 02:32:21;;;;;;;10.27;1.40;;;;;;;14.19;92.58;102195.63;7387937;19;20022;-55
2022/10/18 02:35:06;;;;;;;7.30;1.08;;;;;;;14.14;92.25;102191.59;7386365;19;20019;-55
2022/10/18 02:37:37;;;;;;;10.50;1.40;;;;;;;14.13;92.73;102195.22;7385998;19;20038;-59
2022/10/18 02:40:07;;;;;;;11.23;1.40;;;;;;;14.13;92.98;102189.91;7385857;19;20667;-56
2022/10/18 02:42:46;;;;;;;15.27;2.05;;;;;;;14.10;93.01;102190.22;7386196;19;20019;-55
2022/10/18 02:45:14;;;;;;;10.27;1.35;;;;;;;14.12;93.03;102198.00;7386163;19;20048;-58
2022/10/18 02:47:41;;;;;;;9.68;2.20;;;;;;;14.13;93.23;102197.84;7388255;19;20014;-59
2022/10/18 02:50:11;;;;;;;8.85;1.20;;;;;;;14.12;92.77;102185.59;7384758;19;20021;-59
2022/10/18 02:52:40;;;;;;;17.38;1.55;;;;;;;14.11;92.45;102186.59;7386252;19;20597;-58
2022/10/18 02:55:09;;;;;;;19.48;1.70;;;;;;;14.07;92.32;102179.88;7386244;19;20039;-59
2022/10/18 02:57:37;;;;;;;9.55;1.20;;;;;;;14.03;92.75;102183.81;7386320;19;20058;-59
2022/10/18 03:00:05;;;;;;;15.52;1.80;;;;;;;13.98;92.76;102178.09;7385610;19;20015;-58
2022/10/18 03:02:32;;;;;;;10.95;1.60;;;;;;;13.98;92.69;102171.97;7385822;19;20047;-59
2022/10/18 03:04:58;;;;;;;7.95;1.42;;;;;;;13.97;93.15;102171.13;7384215;19;20064;-59
2022/10/18 03:07:25;;;;;;;10.48;1.85;;;;;;;13.96;93.39;102180.06;7386275;19;20022;-58
2022/10/18 03:09:52;;;;;;;10.05;1.10;;;;;;;13.97;93.44;102186.16;7387590;19;20018;-58
2022/10/18 03:12:19;;;;;;;9.95;2.00;;;;;;;13.95;92.63;102181.03;7386162;19;20006;-59
2022/10/18 03:14:46;;;;;;;7.90;1.35;;;;;;;13.95;93.23;102177.56;7384132;19;20015;-58
2022/10/18 03:17:12;;;;;;;11.48;1.80;;;;;;;13.96;93.02;102179.22;7385442;19;20059;-59
2022/10/18 03:19:39;;;;;;;6.40;0.90;;;;;;;13.93;93.09;102182.97;7384793;19;20482;-58
2022/10/18 03:22:06;;;;;;;10.70;1.33;;;;;;;13.94;92.91;102184.66;7384720;19;20022;-60
2022/10/18 03:24:33;;;;;;;25.55;1.95;;;;;;;13.93;93.01;102196.22;7385579;19;20042;-58
2022/10/18 03:27:02;;;;;;;7.97;1.35;;;;;;;13.94;93.35;102191.75;7390986;19;20014;-61
2022/10/18 03:29:28;;;;;;;5.95;0.98;;;;;;;13.93;92.81;102190.91;7392967;19;20482;-60
2022/10/18 03:31:55;;;;;;;12.20;1.50;;;;;;;13.89;92.26;102194.81;7393839;19;20372;-59
2022/10/18 03:34:22;;;;;;;13.02;0.98;;;;;;;13.86;92.79;102197.75;7394179;19;20019;-59
2022/10/18 03:36:49;;;;;;;8.85;1.40;;;;;;;13.83;92.70;102197.19;7390404;19;20035;-58
2022/10/18 03:39:16;;;;;;;8.73;1.20;;;;;;;13.79;93.07;102206.38;7391834;19;20014;-59
2022/10/18 03:41:42;;;;;;;8.60;1.55;;;;;;;13.77;93.38;102208.31;7391984;19;20026;-57
2022/10/18 03:44:09;;;;;;;8.68;1.35;;;;;;;13.77;94.19;102205.69;7388548;19;20342;-59
2022/10/18 03:46:36;;;;;;;11.13;1.65;;;;;;;13.76;94.02;102209.31;7395441;19;20022;-58
2022/10/18 03:49:03;;;;;;;12.30;1.75;;;;;;;13.77;93.68;102210.97;7390131;19;20653;-58
2022/10/18 03:51:30;;;;;;;16.50;1.52;;;;;;;13.73;93.66;102215.72;7390602;19;20376;-59
2022/10/18 03:53:56;;;;;;;14.38;1.40;;;;;;;13.70;93.86;102211.56;7392532;19;20775;-58
2022/10/18 03:56:23;;;;;;;11.15;1.67;;;;;;;13.68;94.17;102215.28;7393729;19;20018;-63
2022/10/18 03:58:50;;;;;;;14.15;2.35;;;;;;;13.67;94.20;102206.53;7391437;19;20018;-58
2022/10/18 04:01:17;;;;;;;8.98;2.63;;;;;;;13.70;94.67;102210.72;7392142;19;20015;-59
2022/10/18 04:03:44;;;;;;;12.52;1.67;;;;;;;13.70;94.51;102200.13;7390780;19;20052;-57
2022/10/18 04:06:11;;;;;;;10.82;1.80;;;;;;;13.64;93.57;102205.97;7390785;19;20007;-59
2022/10/18 04:08:37;;;;;;;13.60;1.92;;;;;;;13.63;93.66;102206.94;7393391;19;20666;-58
2022/10/18 04:11:07;;;;;;;9.50;1.80;;;;;;;13.63;93.94;102202.47;7391087;19;20022;-59
2022/10/18 04:13:34;;;;;;;13.45;1.98;;;;;;;13.65;93.95;102203.19;7391720;19;20034;-57
2022/10/18 04:16:01;;;;;;;16.55;5.50;;;;;;;13.65;93.73;102202.34;7390917;19;20054;-57
2022/10/18 04:18:28;;;;;;;10.25;1.60;;;;;;;13.62;93.74;102200.81;7392379;19;20042;-55
2022/10/18 04:20:55;;;;;;;10.82;1.83;;;;;;;13.58;93.50;102199.41;7390485;19;20113;-59
2022/10/18 04:23:32;;;;;;;10.57;1.52;;;;;;;13.57;93.28;102202.19;7391745;19;20459;-58
2022/10/18 04:26:04;;;;;;;15.97;2.77;;;;;;;13.53;93.12;102206.09;7391362;19;20023;-59
2022/10/18 04:28:32;;;;;;;10.88;2.17;;;;;;;13.52;92.96;102209.72;7391868;19;20035;-58
2022/10/18 04:30:59;;;;;;;10.70;1.75;;;;;;;13.50;93.14;102211.66;7391245;19;20010;-57
2022/10/18 04:33:26;;;;;;;8.32;1.67;;;;;;;13.43;93.25;102210.53;7390621;19;20022;-61
2022/10/18 04:35:53;;;;;;;11.80;2.47;;;;;;;13.37;93.43;102214.56;7389315;19;20018;-60
2022/10/18 04:38:20;;;;;;;19.65;2.17;;;;;;;13.35;93.89;102213.88;7390142;19;20014;-62
2022/10/18 04:40:47;;;;;;;14.02;1.90;;;;;;;13.38;94.40;102220.69;7390553;19;20040;-59
2022/10/18 04:43:14;;;;;;;18.88;2.08;;;;;;;13.39;94.70;102225.84;7389735;19;20066;-58
2022/10/18 04:45:40;;;;;;;11.18;1.70;;;;;;;13.43;94.88;102227.25;7389862;19;20337;-60
2022/10/18 04:48:07;;;;;;;13.15;2.60;;;;;;;13.43;94.60;102224.59;7391070;19;20467;-60
2022/10/18 04:50:34;;;;;;;10.52;1.92;;;;;;;13.41;94.24;102218.59;7389516;19;20038;-55
2022/10/18 04:53:01;;;;;;;11.93;1.80;;;;;;;13.42;93.82;102222.91;7390515;19;20006;-58
2022/10/18 04:55:28;;;;;;;11.68;2.25;;;;;;;13.43;94.14;102221.94;7389721;19;20035;-58
2022/10/18 04:57:54;;;;;;;13.48;3.17;;;;;;;13.41;93.86;102223.88;7390122;19;20046;-59
2022/10/18 05:00:21;;;;;;;17.65;3.13;;;;;;;13.40;93.91;102227.53;7389869;19;20034;-59
2022/10/18 05:02:48;;;;;;;10.05;3.22;;;;;;;13.43;94.60;102229.03;7391366;19;20832;-59
2022/10/18 05:05:15;;;;;;;9.95;2.25;;;;;;;13.46;94.74;102234.06;7389940;19;20018;-59
2022/10/18 05:07:42;;;;;;;15.93;2.25;;;;;;;13.50;94.28;102232.81;7387867;19;20018;-59
2022/10/18 05:10:09;;;;;;;8.45;1.80;;;;;;;13.49;93.60;102228.50;7390948;19;20424;-56
2022/10/18 05:12:36;;;;;;;16.05;2.20;;;;;;;13.49;93.13;102231.16;7389772;19;20501;-60
2022/10/18 05:15:03;;;;;;;12.82;1.67;;;;;;;13.46;93.24;102240.16;7386873;19;20033;-61
2022/10/18 05:17:30;;;;;;;10.43;1.80;;;;;;;13.44;92.94;102236.00;7390012;19;20015;-59
2022/10/18 05:19:57;;;;;;;8.95;2.00;;;;;;;13.39;92.96;102240.88;7390665;19;20432;-57
2022/10/18 05:22:24;;;;;;;11.15;2.63;;;;;;;13.38;93.16;102233.91;7388809;19;20013;-57
2022/10/18 05:24:51;;;;;;;10.23;1.98;;;;;;;13.39;93.18;102238.22;7389123;19;20035;-59
2022/10/18 05:27:17;;;;;;;14.23;2.03;;;;;;;13.36;93.43;102236.69;7389322;19;20015;-58
2022/10/18 05:29:44;;;;;;;12.07;2.05;;;;;;;13.39;93.42;102238.22;7388249;19;20515;-57
2022/10/18 05:32:11;;;;;;;12.65;2.13;;;;;;;13.39;93.10;102240.88;7390329;19;20011;-57
2022/10/18 05:34:38;;;;;;;14.40;2.67;;;;;;;13.40;93.55;102238.09;7388207;19;20380;-58
2022/10/18 05:37:06;;;;;;;14.93;2.88;;;;;;;13.44;93.60;102241.28;7388448;19;20475;-62
2022/10/18 05:39:32;;;;;;;10.32;2.28;;;;;;;13.39;92.64;102241.72;7388293;19;20018;-59
2022/10/18 05:41:59;;;;;;;10.38;1.88;;;;;;;13.36;92.70;102241.16;7388959;19;20011;-60
2022/10/18 05:44:26;;;;;;;13.63;2.45;;;;;;;13.31;92.80;102244.19;7386459;19;20014;-59
2022/10/18 05:46:53;;;;;;;12.52;2.47;;;;;;;13.28;92.77;102249.75;7390753;19;20010;-57
2022/10/18 05:49:20;;;;;;;12.40;2.60;;;;;;;13.27;93.22;102254.19;7386774;19;20010;-58
2022/10/18 05:51:47;;;;;;;11.80;2.20;;;;;;;13.30;93.68;102255.75;7387064;19;20503;-60
2022/10/18 05:54:14;;;;;;;15.43;2.38;;;;;;;13.32;93.51;102251.13;7388425;19;20625;-60
2022/10/18 05:56:41;;;;;;;13.05;2.00;;;;;;;13.32;93.31;102252.94;7388419;19;20025;-59
2022/10/18 05:59:10;;;;;;;10.20;2.83;;;;;;;13.29;92.78;102259.34;7387929;19;20291;-59
2022/10/18 06:01:39;;;;;;;12.15;2.25;;;;;;;13.31;92.98;102251.31;7389396;19;20034;-59
2022/10/18 06:04:06;;;;;;;11.38;2.33;;;;;;;13.31;92.80;102267.97;7386516;19;20025;-59
2022/10/18 06:06:33;;;;;;;12.43;2.17;;;;;;;13.28;92.67;102258.50;7388457;19;20014;-57
2022/10/18 06:09:02;;;;;;;9.75;2.35;;;;;;;13.22;92.09;102256.41;7389150;19;20021;-59
2022/10/18 06:11:29;;;;;;;16.67;2.60;;;;;;;13.20;92.35;102268.09;7388998;19;20666;-56
2022/10/18 06:13:56;;;;;;;12.48;2.40;;;;;;;13.21;92.84;102264.47;7387474;19;20017;-57
2022/10/18 06:16:24;;;;;;;13.18;2.90;;;;;;;13.22;92.84;102264.34;7386335;19;20015;-57
2022/10/18 06:18:58;;;;;;;10.20;2.70;;;;;;;13.22;92.80;102268.78;7387670;19;20027;-58
2022/10/18 06:21:25;;;;;;;11.85;2.90;;;;;;;13.21;92.53;102270.59;7386853;19;20043;-58
2022/10/18 06:23:55;;;;;;;13.38;2.72;;;;;;;13.18;92.21;102284.09;7386077;19;20022;-58
2022/10/18 06:26:22;;;;;;;10.48;2.05;;;;;;;13.20;92.73;102281.31;7386838;19;20018;-58
2022/10/18 06:28:49;;;;;;;13.23;2.53;;;;;;;13.20;92.65;102284.78;7386218;19;20472;-57
2022/10/18 06:31:17;;;;;;;10.88;2.53;;;;;;;13.21;93.13;102286.44;7387273;19;20019;-58
2022/10/18 06:33:44;;;;;;;13.00;2.38;;;;;;;13.23;92.90;102294.25;7386994;19;20057;-56
2022/10/18 06:36:22;;;;;;;11.52;2.38;;;;;;;13.22;92.78;102293.41;7385332;19;20022;-59
2022/10/18 06:38:49;;;;;;;12.55;2.85;;;;;;;13.22;92.79;102288.13;7387489;19;20014;-55
2022/10/18 06:41:18;;;;;;;12.68;2.83;;;;;;;13.21;92.30;102286.44;7387642;19;20021;-57
2022/10/18 06:43:49;;;;;;;12.30;2.70;;;;;;;13.21;92.22;102290.91;7383999;19;20106;-59
2022/10/18 06:46:16;;;;;;;16.75;3.10;;;;;;;13.20;92.60;102291.88;7386431;19;20042;-57
2022/10/18 06:48:42;;;;;;;11.20;2.55;;;;;;;13.18;92.52;102296.47;7388553;19;20435;-55
2022/10/18 06:51:10;;;;;;;11.63;3.30;;;;;;;13.21;93.49;102299.66;7383636;19;20022;-57
2022/10/18 06:53:38;;;;;;;19.98;4.55;;;;;;;13.21;93.05;102294.38;7388172;19;20292;-58
2022/10/18 06:56:18;;;;;;;14.77;3.88;;;;;;;13.20;92.63;102300.66;7385724;19;20378;-58
2022/10/18 06:58:45;;;;;;;13.38;3.40;;;;;;;13.22;92.59;102309.28;7387282;19;20015;-58
2022/10/18 07:01:15;;;;;;;10.60;2.78;;;;;;;13.24;92.05;102301.22;7383512;19;20488;-56
2022/10/18 07:03:43;;;;;;;13.45;2.35;;;;;;;13.26;91.29;102304.53;7384869;19;20350;-60
2022/10/18 07:06:13;;;;;;;12.50;3.13;;;;;;;13.26;91.20;102304.53;7383314;19;20534;-57
2022/10/18 07:08:40;;;;;;;26.35;9.65;;;;;;;13.26;91.04;102304.53;7386867;19;20357;-60
2022/10/18 07:11:12;;;;;;;16.30;3.47;;;;;;;13.25;91.12;102316.13;7383930;19;20029;-59
2022/10/18 07:13:39;;;;;;;9.52;2.53;;;;;;;13.30;91.25;102328.94;7385648;19;20729;-57
2022/10/18 07:16:11;;;;;;;9.63;2.85;;;;;;;13.31;91.54;102330.59;7385298;19;20331;-58
2022/10/18 07:18:49;;;;;;;11.73;2.30;;;;;;;13.32;91.41;102329.63;7387880;19;20089;-60
2022/10/18 07:21:21;;;;;;;13.25;2.92;;;;;;;13.33;91.57;102334.78;7384732;19;20022;-59
2022/10/18 07:23:49;;;;;;;10.83;2.53;;;;;;;13.32;90.64;102338.38;7384012;19;20200;-53
2022/10/18 07:26:19;;;;;;;9.00;2.22;;;;;;;13.33;90.77;102332.13;7385016;19;20011;-58
2022/10/18 07:28:50;;;;;;;15.70;3.85;;;;;;;13.33;90.51;102341.88;7383817;19;20030;-57
2022/10/18 07:31:17;;;;;;;11.88;3.72;;;;;;;13.31;90.88;102347.28;7385431;19;20018;-59
2022/10/18 07:33:44;;;;;;;20.58;3.15;;;;;;;13.33;91.44;102350.63;7386241;19;20010;-57
2022/10/18 07:36:12;;;;;;;11.07;3.15;;;;;;;13.44;94.75;102350.56;7382378;19;20016;-59
2022/10/18 07:38:39;;;;;;;15.80;2.17;;;;;;;13.52;94.89;102352.50;7382925;19;20035;-58
2022/10/18 07:41:09;;;;;;;14.35;2.85;;;;;;;13.63;96.06;102347.97;7384433;19;20022;-59
2022/10/18 07:43:40;;;;;;;19.25;4.22;;;;;;;13.60;92.26;102350.88;7383815;19;20379;-57
2022/10/18 07:46:07;;;;;;;10.45;3.10;;;;;;;13.52;90.56;102352.50;7383917;19;20014;-59
2022/10/18 07:48:34;;;;;;;13.98;3.15;;;;;;;13.52;91.52;102363.94;7384079;19;20018;-59
2022/10/18 07:51:01;;;;;;;11.35;2.80;;;;;;;13.53;91.67;102354.19;7381480;19;20017;-56
2022/10/18 07:53:30;;;;;;;15.75;3.15;;;;;;;13.57;91.67;102363.53;7387131;19;20051;-58
2022/10/18 07:55:58;;;;;;;13.25;3.45;;;;;;;13.57;91.35;102364.38;7383960;19;20066;-60
2022/10/18 07:58:31;;;;;;;15.75;2.97;;;;;;;13.58;90.83;102366.03;7385469;19;20631;-61
2022/10/18 08:01:03;;;;;;;19.00;5.85;;;;;;;13.61;90.60;102371.06;7384036;19;20035;-61
2022/10/18 08:03:37;;;;;;;23.10;4.43;;;;;;;13.63;90.67;102371.78;7362412;19;20018;-63
2022/10/18 08:06:10;;;;;;;14.65;3.35;;;;;;;13.67;90.85;102375.81;7368601;19;20080;-59
2022/10/18 08:08:39;;;;;;;10.40;3.25;;;;;;;13.72;90.37;102383.34;7382254;19;20878;-60
2022/10/18 08:11:12;;;;;;;14.77;3.35;;;;;;;13.75;90.23;102384.91;7381971;19;20086;-61
2022/10/18 08:13:39;;;;;;;;;;;;;;;13.76;90.58;102390.06;7387236;19;20014;-57
2022/10/18 08:16:08;;;;;;;21.30;3.40;;;;;;;13.81;90.98;102400.25;7388993;19;19975;-61
2022/10/18 08:18:36;;;;;;;14.75;2.92;;;;;;;13.83;91.25;102401.75;7386840;19;20010;-61
2022/10/18 08:21:05;;;;;;;17.30;3.55;;;;;;;13.88;91.82;102401.34;7387196;19;20044;-59
2022/10/18 08:23:32;;;;;;;13.82;2.85;;;;;;;13.94;91.84;102404.31;7386536;19;20821;-59
2022/10/18 08:26:02;;;;;;;11.27;3.08;;;;;;;13.96;91.55;102407.66;7385812;19;20694;-59
2022/10/18 08:28:28;;;;;;;14.77;3.13;;;;;;;13.99;91.54;102415.31;7383814;19;20047;-60
2022/10/18 08:30:56;;;;;;;12.70;2.92;;;;;;;14.05;91.23;102419.22;7385654;19;20013;-60
2022/10/18 08:33:25;;;;;;;12.13;3.70;;;;;;;14.07;91.33;102419.91;7386087;19;20123;-60
2022/10/18 08:36:07;;;;;;;11.77;3.30;;;;;;;14.12;91.31;102423.84;7381914;19;20015;-57
2022/10/18 08:38:36;;;;;;;17.15;3.42;;;;;;;14.17;91.12;102427.91;7386242;19;20043;-56
2022/10/18 08:41:22;;;;;;;15.02;3.67;;;;;;;14.22;91.20;102421.19;7383500;19;20015;-60
2022/10/18 08:44:01;;;;;;;12.63;3.47;;;;;;;14.27;90.97;102423.47;7385346;19;20011;-59
2022/10/18 08:46:35;;;;;;;20.27;4.10;;;;;;;14.35;91.16;102420.94;7385880;19;20019;-59
2022/10/18 08:49:04;;;;;;;22.70;5.20;;;;;;;14.41;91.36;102421.28;7384751;19;20022;-60
2022/10/18 08:51:41;;;;;;;17.60;3.90;;;;;;;14.46;90.39;102420.88;7384366;19;20017;-60
2022/10/18 08:54:13;;;;;;;15.77;3.97;;;;;;;14.51;90.10;102418.63;7384421;19;20819;-57
2022/10/18 08:56:46;;;;;;;17.42;4.57;;;;;;;14.57;89.81;102419.88;7384027;19;20022;-60
2022/10/18 08:59:13;;;;;;;14.85;3.42;;;;;;;14.62;89.80;102421.16;7380443;19;20015;-58
2022/10/18 09:02:00;;;;;;;11.55;2.85;;;;;;;14.70;89.07;102421.28;7382413;19;20018;-58
2022/10/18 09:04:39;;;;;;;10.05;1.98;;;;;;;14.76;86.84;102412.78;7380829;19;20007;-57
2022/10/18 09:07:24;;;;;;;12.05;1.50;;;;;;;14.85;85.59;102421.69;7376288;19;20094;-59
2022/10/18 09:10:09;;;;;;;7.22;1.27;;;;;;;14.90;84.51;102414.97;7383840;19;20014;-58
2022/10/18 09:12:54;;;;;;;12.65;1.80;;;;;;;14.99;83.93;102419.44;7378976;19;20018;-55
2022/10/18 09:15:54;;;;;;;9.40;1.42;;;;;;;15.11;83.56;102413.97;7382205;19;20014;-62
2022/10/18 09:18:33;;;;;;;7.13;1.05;;;;;;;15.15;80.82;102423.31;7384113;19;20115;-59
2022/10/18 09:21:15;;;;;;;8.23;1.20;;;;;;;15.22;78.60;102422.59;7385491;19;20486;-59
2022/10/18 09:23:47;;;;;;;6.10;0.90;;;;;;;15.23;78.41;102428.75;7386911;19;20082;-60
2022/10/18 09:26:19;;;;;;;7.18;1.38;;;;;;;15.26;78.69;102423.13;7387935;19;20021;-59
2022/10/18 09:29:03;;;;;;;11.70;1.52;;;;;;;15.29;78.29;102420.19;7384644;19;20018;-58
2022/10/18 09:31:51;;;;;;;8.70;1.27;;;;;;;15.31;78.50;102420.88;7389328;19;20018;-57
2022/10/18 09:34:30;;;;;;;9.93;1.23;;;;;;;15.35;77.71;102424.91;7385290;19;20018;-59
2022/10/18 09:36:57;;;;;;;10.73;1.45;;;;;;;15.38;77.39;102429.97;7384833;19;20019;-58
2022/10/18 09:39:29;;;;;;;8.73;1.20;;;;;;;15.44;78.20;102424.03;7387108;19;20373;-59
2022/10/18 09:42:27;;;;;;;11.00;1.13;;;;;;;15.49;77.69;102421.00;7387391;19;20020;-57
2022/10/18 09:45:18;;;;;;;9.20;1.00;;;;;;;15.54;77.42;102422.25;7385940;19;20018;-60
2022/10/18 09:47:58;;;;;;;8.38;0.90;;;;;;;15.57;75.98;102426.41;7389720;19;20035;-59
2022/10/18 09:50:34;;;;;;;3.40;0.63;;;;;;;15.61;75.54;102423.31;7385531;19;20472;-55
2022/10/18 09:53:05;;;;;;;7.57;0.95;;;;;;;15.69;74.14;102430.56;7389996;19;20018;-60
2022/10/18 09:55:37;;;;;;;6.60;0.75;;;;;;;15.72;73.79;102433.75;7386918;19;20455;-58
2022/10/18 09:58:06;;;;;;;6.22;0.90;;;;;;;15.77;74.22;102439.47;7389519;19;20014;-59
2022/10/18 10:00:42;;;;;;;10.35;0.88;;;;;;;15.81;74.74;102438.19;7387994;19;20138;-60
2022/10/18 10:03:13;;;;;;;7.18;0.80;;;;;;;15.93;72.88;102440.66;7386692;19;20026;-59
2022/10/18 10:05:41;;;;;;;7.65;1.00;;;;;;;15.94;72.17;102439.66;7384364;19;20018;-59
2022/10/18 10:08:09;;;;;;;11.50;1.08;;;;;;;15.96;73.02;102440.34;7385929;19;20018;-58
2022/10/18 10:10:44;;;;;;;10.85;1.00;;;;;;;15.97;73.04;102437.53;7386245;19;20014;-58
2022/10/18 10:13:26;;;;;;;8.60;1.20;;;;;;;16.01;73.47;102438.06;7388611;19;20015;-60
2022/10/18 10:16:01;;;;;;;6.38;1.00;;;;;;;16.03;73.20;102442.28;7388584;19;20018;-59
2022/10/18 10:18:33;;;;;;;6.03;0.95;;;;;;;16.09;71.81;102443.50;7388399;19;20037;-60
2022/10/18 10:21:04;;;;;;;8.25;0.80;;;;;;;16.13;72.67;102444.88;7385497;19;20019;-58
2022/10/18 10:23:57;;;;;;;8.38;1.52;;;;;;;16.17;72.06;102440.91;7387905;19;20038;-58
2022/10/18 10:26:33;;;;;;;12.60;1.10;;;;;;;16.23;71.99;102445.63;7385728;19;20119;-63
2022/10/18 10:29:00;;;;;;;12.07;1.17;;;;;;;16.26;71.22;102440.84;7385966;19;20026;-59
2022/10/18 10:31:30;;;;;;;6.57;0.80;;;;;;;16.32;70.31;102442.06;7388040;19;20029;-58
2022/10/18 10:34:02;;;;;;;27.88;2.03;;;;;;;16.39;69.01;102442.31;7388506;19;20014;-58
2022/10/18 10:36:30;;;;;;;9.10;0.82;;;;;;;16.44;67.98;102443.53;7384174;19;20026;-59
2022/10/18 10:39:12;;;;;;;10.85;1.23;;;;;;;16.49;67.77;102432.47;7387350;19;20019;-60
2022/10/18 10:41:40;;;;;;;6.45;1.20;;;;;;;16.50;67.63;102442.09;7385956;19;20035;-61
2022/10/18 10:44:22;;;;;;;10.63;0.77;;;;;;;16.53;69.71;102434.66;7385545;19;20011;-58
2022/10/18 10:46:50;;;;;;;7.63;1.38;;;;;;;16.63;73.44;102434.59;7386729;19;20036;-58
2022/10/18 10:49:20;;;;;;;9.57;0.70;;;;;;;16.65;71.82;102427.31;7386131;19;20014;-58
2022/10/18 10:52:06;;;;;;;9.52;0.60;;;;;;;16.67;66.52;102435.97;7384998;19;20018;-61
2022/10/18 10:54:51;;;;;;;9.18;1.00;;;;;;;16.72;66.65;102440.81;7380350;19;20022;-58
2022/10/18 10:57:28;;;;;;;3.92;0.50;;;;;;;16.71;68.25;102437.31;7385854;19;20030;-59
2022/10/18 10:59:58;;;;;;;5.78;0.60;;;;;;;16.71;67.25;102437.31;7383526;19;20753;-59
2022/10/18 11:02:32;;;;;;;8.13;0.60;;;;;;;16.72;66.95;102436.34;7386115;19;20043;-60
2022/10/18 11:05:28;;;;;;;7.45;0.50;;;;;;;16.75;66.53;102435.22;7381722;19;20026;-59
2022/10/18 11:08:00;;;;;;;5.18;0.60;;;;;;;16.78;68.20;102434.91;7384696;19;20468;-57
2022/10/18 11:10:33;;;;;;;3.78;0.57;;;;;;;16.80;68.13;102444.41;7383360;19;20513;-59
2022/10/18 11:13:04;;;;;;;6.85;0.75;;;;;;;16.84;68.61;102429.81;7382036;19;20400;-61
2022/10/18 11:15:46;;;;;;;8.43;0.73;;;;;;;16.88;67.98;102425.00;7386172;19;20043;-58
2022/10/18 11:18:16;;;;;;;5.60;1.03;;;;;;;16.92;67.30;102431.69;7386969;19;20039;-58
2022/10/18 11:21:07;;;;;;;10.40;0.95;;;;;;;16.95;67.63;102429.56;7385443;19;20014;-58
2022/10/18 11:23:37;;;;;;;6.63;0.80;;;;;;;16.99;66.62;102422.94;7386794;19;20026;-58
2022/10/18 11:26:21;;;;;;;7.63;0.68;;;;;;;17.05;67.14;102427.66;7383234;19;20570;-57
2022/10/18 11:29:04;;;;;;;10.38;0.90;;;;;;;17.08;67.43;102429.16;7387220;19;20025;-59
2022/10/18 11:31:52;;;;;;;8.68;0.80;;;;;;;17.10;67.72;102427.19;7383645;19;20006;-60
2022/10/18 11:34:37;;;;;;;7.07;0.77;;;;;;;17.17;66.69;102438.03;7385038;19;20015;-59
2022/10/18 11:37:20;;;;;;;8.13;0.73;;;;;;;17.20;66.53;102435.91;7384085;19;20039;-59
2022/10/18 11:40:31;;;;;;;8.32;0.80;;;;;;;17.25;67.42;102427.44;7382876;19;20474;-61